sensor_id;sensor_type;location;lat;lon;timestamp;pressure;altitude;pressure_sealevel;temperature;humidity
37450;BME280;23309;52.582;13.406;2022-10-31T00:01:39;101342.03;;;20.66;44.42
37450;BME280;23309;52.582;13.406;2022-10-31T00:04:07;101339.50;;;20.64;44.30
37450;BME280;23309;52.582;13.406;2022-10-31T00:06:34;101348.19;;;20.60;44.55
37450;BME280;23309;52.582;13.406;2022-10-31T00:09:02;101330.59;;;20.56;44.47
37450;BME280;23309;52.582;13.406;2022-10-31T00:11:29;101334.50;;;20.53;44.48
37450;BME280;23309;52.582;13.406;2022-10-31T00:13:57;101328.16;;;20.46;44.29
37450;BME280;23309;52.582;13.406;2022-10-31T00:16:25;101341.66;;;20.54;44.29
37450;BME280;23309;52.582;13.406;2022-10-31T00:18:51;101329.56;;;20.42;44.39
37450;BME280;23309;52.582;13.406;2022-10-31T00:21:22;101337.81;;;20.49;44.57
37450;BME280;23309;52.582;13.406;2022-10-31T00:23:48;101351.38;;;20.49;44.77
37450;BME280;23309;52.582;13.406;2022-10-31T00:26:15;101333.66;;;20.38;44.85
37450;BME280;23309;52.582;13.406;2022-10-31T00:28:41;101349.50;;;20.49;44.52
37450;BME280;23309;52.582;13.406;2022-10-31T00:31:09;101328.59;;;20.35;44.64
37450;BME280;23309;52.582;13.406;2022-10-31T00:33:37;101362.75;;;20.44;44.62
37450;BME280;23309;52.582;13.406;2022-10-31T00:36:06;101348.44;;;20.36;44.62
37450;BME280;23309;52.582;13.406;2022-10-31T00:38:35;101360.63;;;20.40;44.45
37450;BME280;23309;52.582;13.406;2022-10-31T00:41:01;101348.78;;;20.33;44.44
37450;BME280;23309;52.582;13.406;2022-10-31T00:43:27;101356.41;;;20.37;44.58
37450;BME280;23309;52.582;13.406;2022-10-31T00:45:53;101355.19;;;20.40;44.25
37450;BME280;23309;52.582;13.406;2022-10-31T00:48:20;101356.94;;;20.33;44.23
37450;BME280;23309;52.582;13.406;2022-10-31T00:50:46;101351.41;;;20.26;44.53
37450;BME280;23309;52.582;13.406;2022-10-31T00:53:12;101364.91;;;20.34;44.74
37450;BME280;23309;52.582;13.406;2022-10-31T00:55:41;101353.47;;;20.24;44.55
37450;BME280;23309;52.582;13.406;2022-10-31T00:58:07;101366.28;;;20.30;44.31
37450;BME280;23309;52.582;13.406;2022-10-31T01:00:33;101364.19;;;20.18;44.64
37450;BME280;23309;52.582;13.406;2022-10-31T01:03:00;101350.16;;;20.14;44.48
37450;BME280;23309;52.582;13.406;2022-10-31T01:05:26;101370.78;;;20.23;44.62
37450;BME280;23309;52.582;13.406;2022-10-31T01:07:52;101375.03;;;20.18;44.61
37450;BME280;23309;52.582;13.406;2022-10-31T01:10:18;101371.34;;;20.11;44.63
37450;BME280;23309;52.582;13.406;2022-10-31T01:12:49;101369.69;;;20.10;44.46
37450;BME280;23309;52.582;13.406;2022-10-31T01:15:18;101372.03;;;20.13;44.67
37450;BME280;23309;52.582;13.406;2022-10-31T01:17:44;101387.97;;;20.16;44.72
37450;BME280;23309;52.582;13.406;2022-10-31T01:20:14;101389.81;;;20.15;44.84
37450;BME280;23309;52.582;13.406;2022-10-31T01:22:40;101392.72;;;20.14;44.52
37450;BME280;23309;52.582;13.406;2022-10-31T01:25:09;101382.41;;;20.09;44.52
37450;BME280;23309;52.582;13.406;2022-10-31T01:27:35;101382.56;;;20.08;44.67
37450;BME280;23309;52.582;13.406;2022-10-31T01:30:06;101379.16;;;20.14;44.48
37450;BME280;23309;52.582;13.406;2022-10-31T01:32:32;101380.03;;;20.06;44.64
37450;BME280;23309;52.582;13.406;2022-10-31T01:34:58;101387.47;;;20.12;44.39
37450;BME280;23309;52.582;13.406;2022-10-31T01:37:24;101378.69;;;20.02;44.64
37450;BME280;23309;52.582;13.406;2022-10-31T01:39:50;101387.97;;;20.08;44.83
37450;BME280;23309;52.582;13.406;2022-10-31T01:42:20;101366.03;;;19.95;44.48
37450;BME280;23309;52.582;13.406;2022-10-31T01:44:59;101390.00;;;20.14;44.35
37450;BME280;23309;52.582;13.406;2022-10-31T01:47:49;101385.13;;;20.09;43.99
37450;BME280;23309;52.582;13.406;2022-10-31T01:50:28;101375.69;;;19.97;44.23
37450;BME280;23309;52.582;13.406;2022-10-31T01:52:56;101378.25;;;19.91;44.48
37450;BME280;23309;52.582;13.406;2022-10-31T01:55:28;101378.13;;;19.84;44.84
37450;BME280;23309;52.582;13.406;2022-10-31T01:57:59;101390.00;;;19.83;44.71
37450;BME280;23309;52.582;13.406;2022-10-31T02:00:28;101376.84;;;19.72;44.45
37450;BME280;23309;52.582;13.406;2022-10-31T02:03:00;101387.81;;;19.79;44.56
37450;BME280;23309;52.582;13.406;2022-10-31T02:05:29;101399.81;;;19.84;44.67
37450;BME280;23309;52.582;13.406;2022-10-31T02:08:01;101390.66;;;19.85;44.88
37450;BME280;23309;52.582;13.406;2022-10-31T02:10:30;101367.94;;;19.64;44.78
37450;BME280;23309;52.582;13.406;2022-10-31T02:12:59;101387.22;;;19.69;45.03
37450;BME280;23309;52.582;13.406;2022-10-31T02:15:27;101401.38;;;19.79;44.86
37450;BME280;23309;52.582;13.406;2022-10-31T02:17:56;101399.34;;;19.81;44.84
37450;BME280;23309;52.582;13.406;2022-10-31T02:20:25;101392.28;;;19.72;44.99
37450;BME280;23309;52.582;13.406;2022-10-31T02:23:35;101398.75;;;19.93;44.51
37450;BME280;23309;52.582;13.406;2022-10-31T02:26:41;101393.19;;;19.87;44.45
37450;BME280;23309;52.582;13.406;2022-10-31T02:29:53;101377.16;;;19.77;44.43
37450;BME280;23309;52.582;13.406;2022-10-31T02:32:34;101383.34;;;19.63;44.89
37450;BME280;23309;52.582;13.406;2022-10-31T02:35:23;101397.34;;;19.75;44.68
37450;BME280;23309;52.582;13.406;2022-10-31T02:38:00;101393.19;;;19.64;44.62
37450;BME280;23309;52.582;13.406;2022-10-31T02:40:34;101399.59;;;19.63;45.06
37450;BME280;23309;52.582;13.406;2022-10-31T02:43:06;101403.34;;;19.62;44.82
37450;BME280;23309;52.582;13.406;2022-10-31T02:45:45;101400.94;;;19.67;45.34
37450;BME280;23309;52.582;13.406;2022-10-31T02:48:21;101401.44;;;19.71;45.12
37450;BME280;23309;52.582;13.406;2022-10-31T02:50:55;101385.22;;;19.63;45.07
37450;BME280;23309;52.582;13.406;2022-10-31T02:53:22;101395.53;;;19.67;45.17
37450;BME280;23309;52.582;13.406;2022-10-31T02:56:00;101398.03;;;19.77;45.74
37450;BME280;23309;52.582;13.406;2022-10-31T02:58:31;101402.81;;;19.67;45.87
37450;BME280;23309;52.582;13.406;2022-10-31T03:01:26;101406.09;;;19.85;45.83
37450;BME280;23309;52.582;13.406;2022-10-31T03:04:50;101387.81;;;19.79;46.01
37450;BME280;23309;52.582;13.406;2022-10-31T03:07:23;101399.88;;;19.76;46.59
37450;BME280;23309;52.582;13.406;2022-10-31T03:10:04;101389.16;;;19.83;46.95
37450;BME280;23309;52.582;13.406;2022-10-31T03:12:40;101401.63;;;19.92;46.97
37450;BME280;23309;52.582;13.406;2022-10-31T03:15:14;101421.44;;;20.00;46.85
37450;BME280;23309;52.582;13.406;2022-10-31T03:17:52;101408.53;;;20.02;47.12
37450;BME280;23309;52.582;13.406;2022-10-31T03:20:28;101413.06;;;20.10;47.14
37450;BME280;23309;52.582;13.406;2022-10-31T03:22:56;101411.41;;;20.09;47.27
37450;BME280;23309;52.582;13.406;2022-10-31T03:25:24;101416.47;;;20.12;47.32
37450;BME280;23309;52.582;13.406;2022-10-31T03:27:51;101417.13;;;20.14;47.22
37450;BME280;23309;52.582;13.406;2022-10-31T03:30:18;101424.72;;;20.18;47.10
37450;BME280;23309;52.582;13.406;2022-10-31T03:32:48;101427.00;;;20.29;47.24
37450;BME280;23309;52.582;13.406;2022-10-31T03:35:18;101427.38;;;20.26;47.56
37450;BME280;23309;52.582;13.406;2022-10-31T03:37:50;101440.06;;;20.34;47.21
37450;BME280;23309;52.582;13.406;2022-10-31T03:40:19;101442.94;;;20.32;47.41
37450;BME280;23309;52.582;13.406;2022-10-31T03:42:54;101431.22;;;20.32;47.54
37450;BME280;23309;52.582;13.406;2022-10-31T03:45:24;101432.66;;;20.20;47.35
37450;BME280;23309;52.582;13.406;2022-10-31T03:47:52;101442.44;;;20.29;47.43
37450;BME280;23309;52.582;13.406;2022-10-31T03:50:20;101445.47;;;20.34;47.68
37450;BME280;23309;52.582;13.406;2022-10-31T03:52:53;101443.25;;;20.37;47.75
37450;BME280;23309;52.582;13.406;2022-10-31T03:55:28;101435.09;;;20.37;47.86
37450;BME280;23309;52.582;13.406;2022-10-31T03:57:59;101446.06;;;20.44;47.83
37450;BME280;23309;52.582;13.406;2022-10-31T04:00:28;101453.84;;;20.47;47.52
37450;BME280;23309;52.582;13.406;2022-10-31T04:03:01;101449.25;;;20.47;47.87
37450;BME280;23309;52.582;13.406;2022-10-31T04:05:31;101445.91;;;20.45;47.48
37450;BME280;23309;52.582;13.406;2022-10-31T04:08:02;101451.63;;;20.50;47.50
37450;BME280;23309;52.582;13.406;2022-10-31T04:10:30;101451.44;;;20.52;47.64
37450;BME280;23309;52.582;13.406;2022-10-31T04:13:01;101452.09;;;20.54;47.29
37450;BME280;23309;52.582;13.406;2022-10-31T04:15:29;101470.19;;;20.61;47.38
37450;BME280;23309;52.582;13.406;2022-10-31T04:17:58;101439.63;;;20.45;46.97
37450;BME280;23309;52.582;13.406;2022-10-31T04:20:33;101467.94;;;20.65;47.14
37450;BME280;23309;52.582;13.406;2022-10-31T04:23:04;101448.22;;;20.48;46.96
37450;BME280;23309;52.582;13.406;2022-10-31T04:25:30;101461.63;;;20.50;47.06
37450;BME280;23309;52.582;13.406;2022-10-31T04:27:57;101471.09;;;20.54;47.04
37450;BME280;23309;52.582;13.406;2022-10-31T04:30:23;101476.00;;;20.58;47.21
37450;BME280;23309;52.582;13.406;2022-10-31T04:32:49;101457.88;;;20.51;47.27
37450;BME280;23309;52.582;13.406;2022-10-31T04:35:15;101465.50;;;20.55;47.01
37450;BME280;23309;52.582;13.406;2022-10-31T04:37:42;101469.88;;;20.56;47.09
37450;BME280;23309;52.582;13.406;2022-10-31T04:40:11;101467.34;;;20.55;47.08
37450;BME280;23309;52.582;13.406;2022-10-31T04:42:37;101474.97;;;20.59;46.94
37450;BME280;23309;52.582;13.406;2022-10-31T04:45:05;101481.41;;;20.58;47.02
37450;BME280;23309;52.582;13.406;2022-10-31T04:47:32;101484.22;;;20.65;47.15
37450;BME280;23309;52.582;13.406;2022-10-31T04:49:58;101484.78;;;20.60;46.84
37450;BME280;23309;52.582;13.406;2022-10-31T04:52:24;101467.91;;;20.50;47.17
37450;BME280;23309;52.582;13.406;2022-10-31T04:54:52;101480.75;;;20.56;46.94
37450;BME280;23309;52.582;13.406;2022-10-31T04:57:21;101471.28;;;20.52;47.01
37450;BME280;23309;52.582;13.406;2022-10-31T04:59:47;101471.44;;;20.51;47.06
37450;BME280;23309;52.582;13.406;2022-10-31T05:02:13;101460.84;;;20.41;47.30
37450;BME280;23309;52.582;13.406;2022-10-31T05:04:39;101469.28;;;20.46;47.33
37450;BME280;23309;52.582;13.406;2022-10-31T05:07:06;101481.09;;;20.53;47.47
37450;BME280;23309;52.582;13.406;2022-10-31T05:09:32;101476.53;;;20.54;47.21
37450;BME280;23309;52.582;13.406;2022-10-31T05:11:58;101483.94;;;20.60;46.93
37450;BME280;23309;52.582;13.406;2022-10-31T05:14:26;101462.53;;;20.42;47.20
37450;BME280;23309;52.582;13.406;2022-10-31T05:16:52;101471.16;;;20.46;47.05
37450;BME280;23309;52.582;13.406;2022-10-31T05:19:19;101488.72;;;20.58;47.10
37450;BME280;23309;52.582;13.406;2022-10-31T05:21:45;101492.28;;;20.58;47.02
37450;BME280;23309;52.582;13.406;2022-10-31T05:24:11;101495.66;;;20.60;46.74
37450;BME280;23309;52.582;13.406;2022-10-31T05:26:37;101485.69;;;20.53;46.69
37450;BME280;23309;52.582;13.406;2022-10-31T05:29:03;101493.09;;;20.59;46.50
37450;BME280;23309;52.582;13.406;2022-10-31T05:31:32;101487.72;;;20.51;46.39
37450;BME280;23309;52.582;13.406;2022-10-31T05:33:58;101489.31;;;20.45;46.10
37450;BME280;23309;52.582;13.406;2022-10-31T05:36:26;101494.75;;;20.45;46.22
37450;BME280;23309;52.582;13.406;2022-10-31T05:38:52;101502.50;;;20.48;46.37
37450;BME280;23309;52.582;13.406;2022-10-31T05:41:18;101492.91;;;20.38;46.60
37450;BME280;23309;52.582;13.406;2022-10-31T05:43:45;101482.13;;;20.30;46.30
37450;BME280;23309;52.582;13.406;2022-10-31T05:46:11;101505.78;;;20.44;46.67
37450;BME280;23309;52.582;13.406;2022-10-31T05:48:39;101509.84;;;20.48;46.85
37450;BME280;23309;52.582;13.406;2022-10-31T05:51:05;101501.38;;;20.43;46.37
37450;BME280;23309;52.582;13.406;2022-10-31T05:53:32;101509.69;;;20.41;47.01
37450;BME280;23309;52.582;13.406;2022-10-31T05:55:58;101510.53;;;20.42;46.98
37450;BME280;23309;52.582;13.406;2022-10-31T05:58:24;101501.44;;;20.35;46.64
37450;BME280;23309;52.582;13.406;2022-10-31T06:00:50;101509.56;;;20.35;46.73
37450;BME280;23309;52.582;13.406;2022-10-31T06:03:17;101514.63;;;20.38;47.06
37450;BME280;23309;52.582;13.406;2022-10-31T06:05:45;101514.81;;;20.36;47.00
37450;BME280;23309;52.582;13.406;2022-10-31T06:08:11;101525.69;;;20.36;47.15
37450;BME280;23309;52.582;13.406;2022-10-31T06:10:38;101516.50;;;20.37;47.20
37450;BME280;23309;52.582;13.406;2022-10-31T06:13:04;101521.56;;;20.40;47.12
37450;BME280;23309;52.582;13.406;2022-10-31T06:15:30;101505.53;;;20.31;47.00
37450;BME280;23309;52.582;13.406;2022-10-31T06:18:02;101508.72;;;20.34;47.18
37450;BME280;23309;52.582;13.406;2022-10-31T06:20:29;101525.25;;;20.47;47.45
37450;BME280;23309;52.582;13.406;2022-10-31T06:22:58;101524.06;;;20.50;47.25
37450;BME280;23309;52.582;13.406;2022-10-31T06:25:25;101535.22;;;20.55;46.88
37450;BME280;23309;52.582;13.406;2022-10-31T06:27:51;101535.72;;;20.58;47.43
37450;BME280;23309;52.582;13.406;2022-10-31T06:30:17;101510.13;;;20.53;47.19
37450;BME280;23309;52.582;13.406;2022-10-31T06:32:43;101506.38;;;20.54;47.19
37450;BME280;23309;52.582;13.406;2022-10-31T06:35:10;101519.34;;;20.66;47.08
37450;BME280;23309;52.582;13.406;2022-10-31T06:37:36;101524.25;;;20.71;47.03
37450;BME280;23309;52.582;13.406;2022-10-31T06:40:06;101542.28;;;20.86;47.22
37450;BME280;23309;52.582;13.406;2022-10-31T06:42:33;101539.19;;;20.89;47.12
37450;BME280;23309;52.582;13.406;2022-10-31T06:44:59;101540.19;;;20.96;46.93
37450;BME280;23309;52.582;13.406;2022-10-31T06:47:25;101525.28;;;20.92;46.97
37450;BME280;23309;52.582;13.406;2022-10-31T06:49:51;101537.59;;;21.03;46.41
37450;BME280;23309;52.582;13.406;2022-10-31T06:52:17;101546.13;;;21.14;46.73
37450;BME280;23309;52.582;13.406;2022-10-31T06:54:43;101554.56;;;21.19;46.38
37450;BME280;23309;52.582;13.406;2022-10-31T06:57:12;101535.56;;;21.19;46.63
37450;BME280;23309;52.582;13.406;2022-10-31T06:59:38;101557.22;;;21.27;46.42
37450;BME280;23309;52.582;13.406;2022-10-31T07:02:04;101560.47;;;21.23;46.32
37450;BME280;23309;52.582;13.406;2022-10-31T07:04:30;101563.19;;;21.23;46.39
37450;BME280;23309;52.582;13.406;2022-10-31T07:06:57;101555.25;;;21.21;46.95
37450;BME280;23309;52.582;13.406;2022-10-31T07:09:23;101564.25;;;21.36;47.23
37450;BME280;23309;52.582;13.406;2022-10-31T07:11:52;101560.91;;;21.49;47.14
37450;BME280;23309;52.582;13.406;2022-10-31T07:14:21;101561.88;;;21.70;46.94
37450;BME280;23309;52.582;13.406;2022-10-31T07:16:49;101557.94;;;22.02;46.47
37450;BME280;23309;52.582;13.406;2022-10-31T07:19:15;101548.13;;;22.22;46.14
37450;BME280;23309;52.582;13.406;2022-10-31T07:21:41;101563.56;;;22.65;45.78
37450;BME280;23309;52.582;13.406;2022-10-31T07:24:07;101569.78;;;23.01;44.49
37450;BME280;23309;52.582;13.406;2022-10-31T07:26:34;101567.00;;;23.43;44.54
37450;BME280;23309;52.582;13.406;2022-10-31T07:29:00;101572.53;;;23.83;43.91
37450;BME280;23309;52.582;13.406;2022-10-31T07:31:29;101568.53;;;24.20;42.69
37450;BME280;23309;52.582;13.406;2022-10-31T07:33:56;101578.78;;;24.52;41.91
37450;BME280;23309;52.582;13.406;2022-10-31T07:36:22;101577.19;;;24.77;41.69
37450;BME280;23309;52.582;13.406;2022-10-31T07:38:49;101581.03;;;25.08;41.59
37450;BME280;23309;52.582;13.406;2022-10-31T07:41:15;101587.56;;;25.40;41.14
37450;BME280;23309;52.582;13.406;2022-10-31T07:43:41;101575.56;;;25.47;40.14
37450;BME280;23309;52.582;13.406;2022-10-31T07:46:07;101581.19;;;25.78;40.33
37450;BME280;23309;52.582;13.406;2022-10-31T07:48:36;101595.53;;;26.00;39.69
37450;BME280;23309;52.582;13.406;2022-10-31T07:51:03;101581.41;;;25.97;38.93
37450;BME280;23309;52.582;13.406;2022-10-31T07:53:29;101596.34;;;26.01;38.96
37450;BME280;23309;52.582;13.406;2022-10-31T07:55:55;101596.97;;;25.90;38.44
37450;BME280;23309;52.582;13.406;2022-10-31T07:58:21;101613.03;;;25.80;38.85
37450;BME280;23309;52.582;13.406;2022-10-31T08:00:47;101606.28;;;25.63;39.30
37450;BME280;23309;52.582;13.406;2022-10-31T08:03:15;101608.81;;;25.58;39.41
37450;BME280;23309;52.582;13.406;2022-10-31T08:05:45;101607.78;;;25.52;39.48
37450;BME280;23309;52.582;13.406;2022-10-31T08:08:12;101601.69;;;25.37;39.92
37450;BME280;23309;52.582;13.406;2022-10-31T08:10:39;101615.13;;;25.38;40.31
37450;BME280;23309;52.582;13.406;2022-10-31T08:13:07;101560.59;;;24.98;40.25
37450;BME280;23309;52.582;13.406;2022-10-31T08:15:34;101621.25;;;25.27;40.24
37450;BME280;23309;52.582;13.406;2022-10-31T08:18:00;101617.19;;;25.17;40.17
37450;BME280;23309;52.582;13.406;2022-10-31T08:20:26;101609.63;;;25.12;41.04
37450;BME280;23309;52.582;13.406;2022-10-31T08:23:00;101600.56;;;25.05;40.69
37450;BME280;23309;52.582;13.406;2022-10-31T08:25:29;101614.66;;;25.02;40.82
37450;BME280;23309;52.582;13.406;2022-10-31T08:27:56;101616.97;;;24.99;40.81
37450;BME280;23309;52.582;13.406;2022-10-31T08:30:24;101605.19;;;24.92;40.22
37450;BME280;23309;52.582;13.406;2022-10-31T08:33:01;101557.16;;;24.57;40.73
37450;BME280;23309;52.582;13.406;2022-10-31T08:35:28;101631.66;;;24.91;40.75
37450;BME280;23309;52.582;13.406;2022-10-31T08:37:57;101607.63;;;24.61;40.65
37450;BME280;23309;52.582;13.406;2022-10-31T08:40:25;101593.88;;;24.48;41.18
37450;BME280;23309;52.582;13.406;2022-10-31T08:42:59;101613.28;;;24.59;40.79
37450;BME280;23309;52.582;13.406;2022-10-31T08:45:26;101622.75;;;24.63;40.79
37450;BME280;23309;52.582;13.406;2022-10-31T08:47:57;101606.09;;;24.52;41.24
37450;BME280;23309;52.582;13.406;2022-10-31T08:50:24;101588.84;;;24.51;40.96
37450;BME280;23309;52.582;13.406;2022-10-31T08:52:50;101621.97;;;24.76;41.14
37450;BME280;23309;52.582;13.406;2022-10-31T08:55:19;101606.22;;;24.97;40.49
37450;BME280;23309;52.582;13.406;2022-10-31T08:57:45;101599.31;;;25.14;40.65
37450;BME280;23309;52.582;13.406;2022-10-31T09:00:12;101618.50;;;25.47;40.08
37450;BME280;23309;52.582;13.406;2022-10-31T09:02:38;101608.78;;;25.77;39.27
37450;BME280;23309;52.582;13.406;2022-10-31T09:05:05;101612.78;;;26.01;38.62
37450;BME280;23309;52.582;13.406;2022-10-31T09:07:32;101616.50;;;26.26;38.40
37450;BME280;23309;52.582;13.406;2022-10-31T09:09:58;101608.81;;;26.47;38.23
37450;BME280;23309;52.582;13.406;2022-10-31T09:12:26;101626.81;;;26.81;37.74
37450;BME280;23309;52.582;13.406;2022-10-31T09:14:52;101615.09;;;26.98;37.73
37450;BME280;23309;52.582;13.406;2022-10-31T09:17:19;101617.91;;;27.16;37.24
37450;BME280;23309;52.582;13.406;2022-10-31T09:19:47;101611.66;;;27.40;36.55
37450;BME280;23309;52.582;13.406;2022-10-31T09:22:13;101622.38;;;27.48;35.94
37450;BME280;23309;52.582;13.406;2022-10-31T09:24:39;101630.34;;;27.50;35.94
37450;BME280;23309;52.582;13.406;2022-10-31T09:27:05;101611.81;;;27.21;35.82
37450;BME280;23309;52.582;13.406;2022-10-31T09:29:34;101640.72;;;27.17;36.70
37450;BME280;23309;52.582;13.406;2022-10-31T09:32:00;101646.19;;;27.23;36.76
37450;BME280;23309;52.582;13.406;2022-10-31T09:34:26;101628.72;;;27.11;36.98
37450;BME280;23309;52.582;13.406;2022-10-31T09:36:53;101638.31;;;27.33;36.61
37450;BME280;23309;52.582;13.406;2022-10-31T09:39:19;101633.34;;;27.48;36.56
37450;BME280;23309;52.582;13.406;2022-10-31T09:42:08;101643.09;;;27.69;35.89
37450;BME280;23309;52.582;13.406;2022-10-31T09:44:50;101648.69;;;27.56;36.39
37450;BME280;23309;52.582;13.406;2022-10-31T09:47:27;101642.66;;;27.41;36.38
37450;BME280;23309;52.582;13.406;2022-10-31T09:50:12;101641.69;;;27.35;36.40
37450;BME280;23309;52.582;13.406;2022-10-31T09:52:46;101658.31;;;27.40;36.82
37450;BME280;23309;52.582;13.406;2022-10-31T09:55:23;101655.91;;;27.75;36.21
37450;BME280;23309;52.582;13.406;2022-10-31T09:57:53;101645.13;;;27.73;36.08
37450;BME280;23309;52.582;13.406;2022-10-31T10:00:22;101648.50;;;28.00;35.86
37450;BME280;23309;52.582;13.406;2022-10-31T10:02:55;101650.81;;;28.21;35.03
37450;BME280;23309;52.582;13.406;2022-10-31T10:05:30;101660.06;;;28.62;34.44
37450;BME280;23309;52.582;13.406;2022-10-31T10:08:03;101636.63;;;28.89;34.13
37450;BME280;23309;52.582;13.406;2022-10-31T10:10:45;101650.44;;;29.30;33.45
37450;BME280;23309;52.582;13.406;2022-10-31T10:13:53;101628.38;;;29.71;32.78
37450;BME280;23309;52.582;13.406;2022-10-31T10:16:42;101624.69;;;29.89;32.64
37450;BME280;23309;52.582;13.406;2022-10-31T10:19:24;101625.38;;;30.19;32.25
37450;BME280;23309;52.582;13.406;2022-10-31T10:21:59;101635.41;;;30.48;31.43
37450;BME280;23309;52.582;13.406;2022-10-31T10:24:42;101617.38;;;30.68;31.43
37450;BME280;23309;52.582;13.406;2022-10-31T10:27:21;101636.44;;;30.98;30.72
37450;BME280;23309;52.582;13.406;2022-10-31T10:29:55;101628.94;;;31.10;30.26
37450;BME280;23309;52.582;13.406;2022-10-31T10:32:29;101629.28;;;31.13;30.00
37450;BME280;23309;52.582;13.406;2022-10-31T10:35:04;101626.66;;;31.35;30.18
37450;BME280;23309;52.582;13.406;2022-10-31T10:37:40;101619.47;;;31.50;30.51
37450;BME280;23309;52.582;13.406;2022-10-31T10:40:15;101617.09;;;31.59;29.73
37450;BME280;23309;52.582;13.406;2022-10-31T10:42:45;101601.72;;;31.46;29.74
37450;BME280;23309;52.582;13.406;2022-10-31T10:45:18;101615.75;;;31.61;29.44
37450;BME280;23309;52.582;13.406;2022-10-31T10:47:55;101610.53;;;31.76;29.82
37450;BME280;23309;52.582;13.406;2022-10-31T10:50:35;101607.28;;;32.01;29.51
37450;BME280;23309;52.582;13.406;2022-10-31T10:53:11;101610.25;;;32.16;28.73
37450;BME280;23309;52.582;13.406;2022-10-31T10:55:47;101613.94;;;32.22;29.19
37450;BME280;23309;52.582;13.406;2022-10-31T10:58:16;101622.44;;;32.37;28.66
37450;BME280;23309;52.582;13.406;2022-10-31T11:00:45;101612.16;;;32.54;28.67
37450;BME280;23309;52.582;13.406;2022-10-31T11:03:15;101620.31;;;32.65;28.13
37450;BME280;23309;52.582;13.406;2022-10-31T11:05:47;101620.00;;;32.62;28.68
37450;BME280;23309;52.582;13.406;2022-10-31T11:08:24;101624.03;;;32.76;28.51
37450;BME280;23309;52.582;13.406;2022-10-31T11:10:58;101619.53;;;32.91;28.74
37450;BME280;23309;52.582;13.406;2022-10-31T11:13:27;101596.25;;;32.87;27.79
37450;BME280;23309;52.582;13.406;2022-10-31T11:16:00;101590.03;;;33.02;28.04
37450;BME280;23309;52.582;13.406;2022-10-31T11:18:34;101593.44;;;33.14;27.61
37450;BME280;23309;52.582;13.406;2022-10-31T11:21:02;101609.59;;;33.22;27.81
37450;BME280;23309;52.582;13.406;2022-10-31T11:23:29;101606.41;;;33.35;27.75
37450;BME280;23309;52.582;13.406;2022-10-31T11:25:58;101593.44;;;33.40;27.51
37450;BME280;23309;52.582;13.406;2022-10-31T11:28:25;101588.59;;;33.57;27.77
37450;BME280;23309;52.582;13.406;2022-10-31T11:30:54;101589.56;;;33.78;27.03
37450;BME280;23309;52.582;13.406;2022-10-31T11:33:30;101591.88;;;33.91;26.90
37450;BME280;23309;52.582;13.406;2022-10-31T11:35:58;101575.59;;;33.99;26.78
37450;BME280;23309;52.582;13.406;2022-10-31T11:38:34;101581.81;;;34.21;26.79
37450;BME280;23309;52.582;13.406;2022-10-31T11:41:11;101582.63;;;34.27;26.43
37450;BME280;23309;52.582;13.406;2022-10-31T11:43:38;101586.75;;;34.19;26.68
37450;BME280;23309;52.582;13.406;2022-10-31T11:46:10;101600.91;;;34.18;26.60
37450;BME280;23309;52.582;13.406;2022-10-31T11:48:39;101585.59;;;34.05;26.82
37450;BME280;23309;52.582;13.406;2022-10-31T11:51:12;101599.09;;;33.87;26.99
37450;BME280;23309;52.582;13.406;2022-10-31T11:53:47;101597.59;;;33.79;27.58
37450;BME280;23309;52.582;13.406;2022-10-31T11:56:16;101597.41;;;33.91;27.21
37450;BME280;23309;52.582;13.406;2022-10-31T11:58:42;101581.59;;;33.86;27.23
37450;BME280;23309;52.582;13.406;2022-10-31T12:01:24;101593.94;;;34.10;27.10
37450;BME280;23309;52.582;13.406;2022-10-31T12:04:01;101592.88;;;34.16;27.02
37450;BME280;23309;52.582;13.406;2022-10-31T12:06:33;101588.09;;;34.07;26.84
37450;BME280;23309;52.582;13.406;2022-10-31T12:09:00;101579.50;;;34.08;27.24
37450;BME280;23309;52.582;13.406;2022-10-31T12:11:45;101583.66;;;34.06;26.84
37450;BME280;23309;52.582;13.406;2022-10-31T12:14:30;101550.44;;;33.74;27.42
37450;BME280;23309;52.582;13.406;2022-10-31T12:17:04;101576.84;;;33.82;27.52
37450;BME280;23309;52.582;13.406;2022-10-31T12:19:43;101579.63;;;33.82;27.14
37450;BME280;23309;52.582;13.406;2022-10-31T12:22:19;101532.84;;;33.49;27.66
37450;BME280;23309;52.582;13.406;2022-10-31T12:25:05;101554.69;;;33.82;26.88
37450;BME280;23309;52.582;13.406;2022-10-31T12:27:56;101570.28;;;33.93;27.12
37450;BME280;23309;52.582;13.406;2022-10-31T12:30:30;101580.75;;;33.86;27.04
37450;BME280;23309;52.582;13.406;2022-10-31T12:33:24;101522.22;;;33.77;27.11
37450;BME280;23309;52.582;13.406;2022-10-31T12:36:10;101569.78;;;34.01;27.24
37450;BME280;23309;52.582;13.406;2022-10-31T12:41:47;101556.19;;;33.99;27.09
37450;BME280;23309;52.582;13.406;2022-10-31T12:44:54;101556.44;;;33.98;27.09
37450;BME280;23309;52.582;13.406;2022-10-31T12:47:56;101547.22;;;33.82;27.58
37450;BME280;23309;52.582;13.406;2022-10-31T12:50:39;101543.00;;;33.80;27.40
37450;BME280;23309;52.582;13.406;2022-10-31T12:53:27;101542.13;;;33.74;27.50
37450;BME280;23309;52.582;13.406;2022-10-31T12:56:06;101560.13;;;33.72;27.55
37450;BME280;23309;52.582;13.406;2022-10-31T12:58:40;101547.03;;;33.57;28.04
37450;BME280;23309;52.582;13.406;2022-10-31T13:01:14;101550.38;;;33.59;28.17
37450;BME280;23309;52.582;13.406;2022-10-31T13:03:47;101531.63;;;33.35;27.94